createdAt,value
2022-07-31T00:02:46.919Z,1.08
2022-07-31T00:05:51.841Z,1.40
2022-07-31T00:08:56.455Z,1.23
2022-07-31T00:12:00.907Z,1.50
2022-07-31T00:15:08.123Z,1.40
2022-07-31T00:18:13.151Z,1.13
2022-07-31T00:21:18.748Z,1.25
2022-07-31T00:24:23.122Z,1.00
2022-07-31T00:27:28.082Z,1.27
2022-07-31T00:30:32.451Z,1.42
2022-07-31T00:33:37.359Z,1.30
2022-07-31T00:36:42.693Z,1.23
2022-07-31T00:39:48.096Z,1.10
2022-07-31T00:42:52.909Z,1.42
2022-07-31T00:45:59.262Z,1.20
2022-07-31T00:49:05.211Z,1.00
2022-07-31T00:52:10.063Z,1.20
2022-07-31T00:55:14.721Z,1.35
2022-07-31T00:58:20.682Z,1.25
2022-07-31T01:01:25.617Z,1.05
2022-07-31T01:04:31.142Z,1.33
2022-07-31T01:07:35.908Z,1.20
2022-07-31T01:11:01.960Z,1.80
2022-07-31T01:14:10.285Z,1.20
2022-07-31T01:17:17.453Z,1.33
2022-07-31T01:20:22.241Z,1.23
2022-07-31T01:23:50.449Z,1.42
2022-07-31T01:27:52.290Z,1.20
2022-07-31T01:31:25.972Z,1.48
2022-07-31T01:34:57.044Z,1.02
2022-07-31T01:38:14.194Z,1.20
2022-07-31T01:41:26.774Z,1.30
2022-07-31T01:44:37.554Z,1.02
2022-07-31T01:47:43.054Z,1.30
2022-07-31T01:50:51.689Z,1.20
2022-07-31T01:53:58.200Z,1.33
2022-07-31T01:57:06.131Z,1.40
2022-07-31T02:00:34.635Z,1.08
2022-07-31T02:03:44.050Z,1.20
2022-07-31T02:06:52.746Z,1.27
2022-07-31T02:09:59.283Z,1.10
2022-07-31T02:13:12.043Z,1.10
2022-07-31T02:16:19.082Z,1.20
2022-07-31T02:19:27.093Z,1.27
2022-07-31T02:22:36.436Z,1.33
2022-07-31T02:25:41.793Z,1.38
2022-07-31T02:28:47.929Z,1.60
2022-07-31T02:32:09.820Z,1.40
2022-07-31T02:35:17.468Z,1.33
2022-07-31T02:38:26.562Z,1.40
2022-07-31T02:41:33.043Z,1.30
2022-07-31T02:44:38.647Z,1.48
2022-07-31T02:47:43.843Z,1.40
2022-07-31T02:50:51.336Z,1.58
2022-07-31T02:53:56.094Z,1.27
2022-07-31T02:57:03.833Z,1.20
2022-07-31T03:00:22.673Z,1.15
2022-07-31T03:03:28.954Z,1.35
2022-07-31T03:06:33.488Z,1.42
2022-07-31T03:09:38.447Z,1.20
2022-07-31T03:13:05.267Z,1.58
2022-07-31T03:16:12.198Z,1.48
2022-07-31T03:19:16.775Z,1.50
2022-07-31T03:22:21.223Z,1.50
2022-07-31T03:25:27.076Z,1.30
2022-07-31T03:28:34.392Z,1.30
2022-07-31T03:31:39.082Z,1.50
2022-07-31T03:34:43.773Z,1.48
2022-07-31T03:37:48.578Z,1.42
2022-07-31T03:40:53.618Z,1.33
2022-07-31T03:43:58.499Z,1.58
2022-07-31T03:47:04.160Z,1.23
2022-07-31T03:50:09.841Z,1.30
2022-07-31T03:53:15.640Z,1.45
2022-07-31T03:56:23.893Z,1.27
2022-07-31T03:59:29.846Z,1.55
2022-07-31T04:02:39.923Z,1.42
2022-07-31T04:06:19.759Z,1.40
2022-07-31T04:09:24.560Z,1.55
2022-07-31T04:12:29.959Z,1.48
2022-07-31T04:15:34.616Z,1.55
2022-07-31T04:18:38.946Z,1.40
2022-07-31T04:21:43.512Z,1.42
2022-07-31T04:24:48.662Z,1.30
2022-07-31T04:28:13.602Z,1.38
2022-07-31T04:31:18.404Z,1.50
2022-07-31T04:34:24.640Z,1.50
2022-07-31T04:37:29.387Z,1.38
2022-07-31T04:40:34.567Z,1.50
2022-07-31T04:43:38.815Z,1.55
2022-07-31T04:46:43.954Z,1.75
2022-07-31T04:49:49.158Z,1.45
2022-07-31T04:52:55.189Z,1.48
2022-07-31T04:56:19.596Z,1.63
2022-07-31T04:59:24.612Z,1.43
2022-07-31T05:02:50.067Z,1.60
2022-07-31T05:05:54.943Z,1.58
2022-07-31T05:09:01.721Z,1.35
2022-07-31T05:12:09.946Z,1.67
2022-07-31T05:15:16.177Z,1.48
2022-07-31T05:18:21.092Z,1.75
2022-07-31T05:21:27.305Z,1.42
2022-07-31T05:24:54.945Z,1.50
2022-07-31T05:28:00.768Z,1.50
2022-07-31T05:31:07.800Z,1.50
2022-07-31T05:34:13.145Z,1.60
2022-07-31T05:37:18.199Z,1.63
2022-07-31T05:40:23.398Z,1.50
2022-07-31T05:50:00.659Z,1.73
2022-07-31T05:53:05.452Z,1.88
2022-07-31T05:56:35.792Z,1.92
2022-07-31T05:59:40.638Z,2.28
2022-07-31T06:02:45.592Z,2.05
2022-07-31T06:06:25.962Z,2.10
2022-07-31T06:09:30.683Z,1.77
2022-07-31T06:12:35.356Z,2.33
2022-07-31T06:15:49.045Z,2.10
2022-07-31T06:18:54.228Z,2.13
2022-07-31T06:21:59.000Z,2.13
2022-07-31T06:25:04.511Z,2.65
2022-07-31T06:28:10.794Z,2.50
2022-07-31T06:31:21.874Z,2.22
2022-07-31T06:34:29.209Z,2.45
2022-07-31T06:37:33.736Z,2.55
2022-07-31T06:40:38.603Z,2.80
2022-07-31T06:44:05.805Z,2.92
2022-07-31T06:47:29.041Z,2.53
2022-07-31T06:50:39.248Z,2.42
2022-07-31T06:54:04.907Z,2.88
2022-07-31T06:57:12.513Z,2.80
2022-07-31T07:00:20.376Z,3.03
2022-07-31T07:03:27.912Z,2.75
2022-07-31T07:06:33.211Z,2.78
2022-07-31T07:09:37.790Z,2.58
2022-07-31T07:12:42.815Z,2.42
2022-07-31T07:15:48.177Z,3.35
2022-07-31T07:18:53.382Z,2.72
2022-07-31T07:22:02.568Z,3.33
2022-07-31T07:25:08.827Z,2.72
2022-07-31T07:28:30.042Z,3.00
2022-07-31T07:31:37.684Z,2.80
2022-07-31T07:34:42.551Z,2.80
2022-07-31T07:37:58.208Z,3.38
2022-07-31T07:41:02.906Z,2.78
2022-07-31T07:44:07.684Z,3.35
2022-07-31T07:47:12.430Z,3.08
2022-07-31T07:50:17.594Z,3.05
2022-07-31T07:53:51.170Z,2.58
2022-07-31T07:57:21.693Z,3.37
2022-07-31T08:00:50.335Z,2.75
2022-07-31T08:03:54.722Z,3.10
2022-07-31T08:06:59.877Z,2.92
2022-07-31T08:10:11.037Z,2.85
2022-07-31T08:13:26.497Z,3.03
2022-07-31T08:16:49.744Z,3.65
2022-07-31T08:19:54.729Z,3.03
2022-07-31T08:22:59.468Z,3.13
2022-07-31T08:26:04.571Z,3.10
2022-07-31T08:29:11.246Z,2.92
2022-07-31T08:32:20.437Z,3.13
2022-07-31T08:35:44.798Z,2.85
2022-07-31T08:38:55.692Z,2.85
2022-07-31T08:42:24.473Z,2.70
2022-07-31T08:45:29.468Z,2.92
2022-07-31T08:48:45.592Z,3.00
2022-07-31T08:51:52.744Z,2.83
2022-07-31T08:55:24.660Z,2.72
2022-07-31T08:58:48.730Z,2.83
2022-07-31T09:01:57.379Z,3.15
2022-07-31T09:05:05.295Z,2.88
2022-07-31T09:08:14.636Z,2.72
2022-07-31T09:11:20.443Z,2.05
2022-07-31T09:14:36.555Z,2.60
2022-07-31T09:17:53.716Z,2.40
2022-07-31T09:21:03.714Z,2.70
2022-07-31T09:24:25.572Z,2.38
2022-07-31T09:27:30.771Z,2.53
2022-07-31T09:30:35.659Z,2.70
2022-07-31T09:34:28.915Z,2.67
2022-07-31T09:38:04.527Z,2.60
2022-07-31T09:41:57.892Z,2.58
2022-07-31T09:45:30.019Z,2.97
2022-07-31T09:48:36.909Z,2.90
2022-07-31T09:51:44.760Z,3.08
2022-07-31T09:55:15.645Z,2.72
2022-07-31T09:58:24.037Z,2.80
2022-07-31T10:01:33.282Z,2.58
2022-07-31T10:04:39.494Z,2.92
2022-07-31T10:07:48.902Z,2.25
2022-07-31T10:10:59.979Z,2.60
2022-07-31T10:14:26.726Z,2.90
2022-07-31T10:17:37.426Z,3.00
2022-07-31T10:21:16.472Z,2.90
2022-07-31T10:24:45.528Z,3.40
2022-07-31T10:27:51.399Z,3.60
2022-07-31T10:30:57.225Z,3.25
2022-07-31T10:34:02.769Z,3.70
2022-07-31T10:37:40.858Z,3.45
2022-07-31T10:41:31.874Z,3.35
2022-07-31T10:44:46.295Z,3.35
2022-07-31T10:48:03.053Z,3.45
2022-07-31T10:51:27.102Z,3.58
2022-07-31T10:55:27.520Z,3.80
2022-07-31T10:58:57.464Z,3.97
2022-07-31T11:02:33.748Z,4.40
2022-07-31T11:06:01.500Z,3.80
2022-07-31T11:09:31.764Z,4.35
2022-07-31T11:13:08.532Z,4.03
2022-07-31T11:16:28.960Z,4.28
2022-07-31T11:20:01.976Z,4.18
2022-07-31T11:23:08.558Z,4.35
2022-07-31T11:26:17.072Z,4.20
2022-07-31T11:29:59.263Z,4.80
2022-07-31T11:33:09.671Z,5.20
2022-07-31T11:36:24.557Z,4.85
2022-07-31T11:39:36.421Z,5.20
2022-07-31T11:42:46.346Z,5.00
2022-07-31T11:45:55.023Z,5.90
2022-07-31T11:49:02.109Z,5.93
2022-07-31T11:52:30.636Z,5.32
2022-07-31T11:55:56.117Z,6.20
2022-07-31T11:59:00.875Z,4.97
2022-07-31T12:02:08.043Z,5.43
2022-07-31T12:05:14.288Z,5.35
2022-07-31T12:08:20.136Z,5.68
2022-07-31T12:11:24.934Z,5.88
2022-07-31T12:14:37.006Z,5.03
2022-07-31T12:17:42.201Z,5.40
2022-07-31T12:21:02.531Z,5.53
2022-07-31T12:24:13.213Z,5.50
2022-07-31T12:27:18.529Z,4.85
2022-07-31T12:30:29.987Z,4.93
2022-07-31T12:33:45.771Z,5.03
2022-07-31T12:37:08.659Z,4.72
2022-07-31T12:40:28.034Z,5.20
2022-07-31T12:43:33.576Z,4.57
2022-07-31T12:46:38.585Z,4.60
2022-07-31T12:49:43.518Z,4.40
2022-07-31T12:52:48.574Z,4.22
2022-07-31T12:55:53.429Z,4.40
2022-07-31T12:58:57.718Z,4.20
2022-07-31T13:02:02.535Z,3.92
2022-07-31T13:05:10.036Z,3.40
2022-07-31T13:08:16.788Z,3.65
2022-07-31T13:11:21.500Z,3.10
2022-07-31T13:14:26.301Z,3.03
2022-07-31T13:17:30.961Z,3.40
2022-07-31T13:20:35.555Z,3.22
2022-07-31T13:23:40.268Z,3.30
2022-07-31T13:26:45.561Z,2.83
2022-07-31T13:29:50.892Z,2.72
2022-07-31T13:32:55.931Z,3.10
2022-07-31T13:36:00.929Z,2.65
2022-07-31T13:39:05.596Z,2.60
2022-07-31T13:42:09.951Z,2.95
2022-07-31T13:45:14.413Z,2.70
2022-07-31T13:48:19.156Z,2.60
2022-07-31T13:51:24.131Z,2.38
2022-07-31T13:54:37.020Z,2.22
2022-07-31T13:57:42.120Z,2.60
2022-07-31T14:00:49.117Z,2.75
2022-07-31T14:03:54.006Z,2.70
2022-07-31T14:07:01.341Z,2.58
2022-07-31T14:10:09.382Z,2.20
2022-07-31T14:13:14.998Z,2.58
2022-07-31T14:16:19.600Z,2.97
2022-07-31T14:19:24.149Z,2.60
2022-07-31T14:22:30.271Z,2.95
2022-07-31T14:25:41.560Z,2.40
2022-07-31T14:28:49.641Z,2.42
2022-07-31T14:31:54.530Z,2.70
2022-07-31T14:34:58.906Z,2.65
2022-07-31T14:38:04.884Z,2.80
2022-07-31T14:41:09.737Z,2.60
2022-07-31T14:44:20.926Z,2.13
2022-07-31T14:47:26.967Z,2.10
2022-07-31T14:50:32.124Z,1.90
2022-07-31T14:53:37.105Z,2.00
2022-07-31T15:00:12.928Z,2.05
2022-07-31T15:03:17.766Z,2.20
2022-07-31T15:06:39.514Z,1.88
2022-07-31T15:09:49.096Z,2.28
2022-07-31T15:13:42.545Z,2.33
2022-07-31T15:16:49.749Z,2.20
2022-07-31T15:19:54.468Z,2.28
2022-07-31T15:23:03.741Z,2.28
2022-07-31T15:26:09.317Z,1.65
2022-07-31T15:29:13.715Z,1.90
2022-07-31T15:32:18.559Z,2.00
2022-07-31T15:35:23.369Z,1.58
2022-07-31T15:38:28.479Z,1.75
2022-07-31T15:41:33.229Z,1.83
2022-07-31T15:44:37.584Z,1.50
2022-07-31T15:47:45.880Z,1.52
2022-07-31T15:50:50.609Z,1.75
2022-07-31T15:53:54.930Z,1.50
2022-07-31T15:57:00.412Z,1.58
2022-07-31T16:00:10.073Z,1.30
2022-07-31T16:03:18.015Z,1.50
2022-07-31T16:06:28.020Z,1.88
2022-07-31T16:09:36.949Z,1.40
2022-07-31T16:13:02.020Z,1.58
2022-07-31T16:16:06.914Z,1.40
2022-07-31T16:19:11.416Z,1.52
2022-07-31T16:22:19.554Z,1.52
2022-07-31T16:25:26.019Z,1.80
2022-07-31T16:28:30.879Z,1.85
2022-07-31T16:31:35.898Z,1.67
2022-07-31T16:34:42.867Z,1.40
2022-07-31T16:37:53.615Z,2.03
2022-07-31T16:40:59.241Z,1.70
2022-07-31T16:44:04.752Z,1.70
2022-07-31T16:47:10.593Z,1.38
2022-07-31T16:50:18.022Z,1.65
2022-07-31T16:54:10.091Z,1.60
2022-07-31T16:56:54.471Z,1.75
2022-07-31T16:59:59.154Z,1.60
2022-07-31T17:03:03.535Z,1.60
2022-07-31T17:06:10.174Z,2.00
2022-07-31T17:09:16.962Z,2.20
2022-07-31T17:12:22.994Z,1.60
2022-07-31T17:15:27.425Z,1.70
2022-07-31T17:18:31.924Z,1.75
2022-07-31T17:21:36.390Z,1.48
2022-07-31T17:24:51.548Z,1.90
2022-07-31T17:27:56.214Z,1.60
2022-07-31T17:31:02.575Z,2.05
2022-07-31T17:34:09.794Z,2.03
2022-07-31T17:37:17.984Z,2.03
2022-07-31T17:40:42.596Z,2.53
2022-07-31T17:44:03.369Z,2.33
2022-07-31T17:47:13.061Z,2.35
2022-07-31T17:50:18.003Z,2.30
2022-07-31T17:53:22.471Z,2.47
2022-07-31T17:56:27.379Z,2.53
2022-07-31T17:59:34.842Z,2.50
2022-07-31T18:02:40.307Z,2.60
2022-07-31T18:05:45.353Z,2.63
2022-07-31T18:09:03.264Z,2.65
2022-07-31T18:12:12.123Z,2.90
2022-07-31T18:15:19.741Z,2.90
2022-07-31T18:18:26.594Z,2.45
2022-07-31T18:21:34.159Z,2.50
2022-07-31T18:24:41.067Z,2.75
2022-07-31T18:27:45.819Z,2.53
2022-07-31T18:30:55.137Z,2.45
2022-07-31T18:34:00.355Z,2.38
2022-07-31T18:37:05.314Z,2.28
2022-07-31T18:40:10.368Z,2.15
2022-07-31T18:43:15.732Z,2.22
2022-07-31T18:46:20.533Z,3.00
2022-07-31T18:50:58.188Z,2.30
2022-07-31T18:52:50.142Z,2.83
2022-07-31T18:55:54.999Z,2.30
2022-07-31T18:59:02.294Z,2.17
2022-07-31T19:02:08.563Z,2.30
2022-07-31T19:05:21.832Z,2.28
2022-07-31T19:08:26.906Z,2.70
2022-07-31T19:11:34.540Z,2.40
2022-07-31T19:14:40.125Z,2.22
2022-07-31T19:17:45.313Z,2.90
2022-07-31T19:21:00.090Z,2.60
2022-07-31T19:24:19.120Z,2.50
2022-07-31T19:27:46.797Z,2.00
2022-07-31T19:30:49.039Z,2.03
2022-07-31T19:33:53.646Z,2.30
2022-07-31T19:36:58.545Z,2.40
2022-07-31T19:40:06.022Z,2.00
2022-07-31T19:43:11.770Z,2.50
2022-07-31T19:46:17.059Z,2.33
2022-07-31T19:49:21.700Z,2.33
2022-07-31T19:52:26.593Z,2.28
2022-07-31T19:55:36.140Z,2.58
2022-07-31T19:58:45.040Z,2.60
2022-07-31T20:01:54.773Z,2.30
2022-07-31T20:05:00.166Z,2.53
2022-07-31T20:08:08.100Z,3.10
2022-07-31T20:11:13.571Z,3.10
2022-07-31T20:14:21.154Z,2.67
2022-07-31T20:17:27.124Z,2.53
2022-07-31T20:20:32.195Z,2.33
2022-07-31T20:23:39.322Z,2.40
2022-07-31T20:26:44.764Z,2.47
2022-07-31T20:29:49.504Z,2.67
2022-07-31T20:32:56.600Z,2.70
2022-07-31T20:36:01.194Z,2.42
2022-07-31T20:39:06.053Z,2.67
2022-07-31T20:42:10.619Z,2.70
2022-07-31T20:45:15.112Z,2.97
2022-07-31T20:48:24.675Z,3.38
2022-07-31T20:51:29.441Z,3.03
2022-07-31T20:54:34.992Z,3.10
2022-07-31T20:57:40.238Z,2.88
2022-07-31T21:00:47.789Z,2.78
2022-07-31T21:03:54.956Z,2.95
2022-07-31T21:07:02.047Z,3.00
2022-07-31T21:10:07.431Z,3.03
2022-07-31T21:13:11.933Z,2.90
2022-07-31T21:16:16.464Z,3.05
2022-07-31T21:19:21.065Z,3.08
2022-07-31T21:22:25.698Z,3.28
2022-07-31T21:25:31.879Z,3.20
2022-07-31T21:28:36.962Z,2.90
2022-07-31T21:31:48.811Z,3.03
2022-07-31T21:34:55.321Z,2.92
2022-07-31T21:38:00.147Z,2.88
2022-07-31T21:41:05.649Z,3.35
2022-07-31T21:44:13.595Z,3.10
2022-07-31T21:47:27.095Z,2.65
2022-07-31T21:50:52.591Z,3.00
2022-07-31T21:53:57.402Z,2.72
2022-07-31T21:57:03.394Z,2.85
2022-07-31T22:00:13.708Z,2.95
2022-07-31T22:03:18.611Z,2.70
2022-07-31T22:06:41.456Z,3.00
2022-07-31T22:09:45.871Z,2.50
2022-07-31T22:12:50.231Z,3.20
2022-07-31T22:15:59.882Z,2.83
2022-07-31T22:19:08.335Z,2.72
2022-07-31T22:22:13.249Z,2.38
2022-07-31T22:25:18.555Z,3.00
2022-07-31T22:28:25.018Z,3.15
2022-07-31T22:31:30.033Z,2.80
2022-07-31T22:34:37.332Z,2.78
2022-07-31T22:37:43.535Z,2.95
2022-07-31T22:40:48.510Z,2.92
2022-07-31T22:44:12.426Z,2.88
2022-07-31T22:47:18.246Z,2.80
2022-07-31T22:50:23.246Z,3.05
2022-07-31T22:53:27.763Z,2.78
2022-07-31T22:56:32.096Z,2.47
2022-07-31T22:59:36.544Z,2.80
2022-07-31T23:02:42.471Z,3.00
2022-07-31T23:06:13.165Z,2.67
2022-07-31T23:09:11.838Z,2.47
2022-07-31T23:12:16.883Z,2.88
2022-07-31T23:15:21.598Z,2.97
2022-07-31T23:18:25.954Z,2.85
2022-07-31T23:21:30.528Z,2.72
2022-07-31T23:24:35.748Z,2.85
2022-07-31T23:27:40.568Z,2.78
2022-07-31T23:30:44.964Z,3.10
2022-07-31T23:33:50.502Z,3.40
2022-07-31T23:36:55.070Z,3.08
2022-07-31T23:39:59.299Z,3.15
2022-07-31T23:43:04.053Z,3.20
2022-07-31T23:46:08.321Z,3.58
2022-07-31T23:49:12.857Z,3.92
2022-07-31T23:52:17.637Z,3.40
2022-07-31T23:55:22.448Z,3.58
2022-07-31T23:58:28.837Z,3.70
